createdAt,value
2022-10-04T00:14:14.196Z,9.92
2022-10-04T00:21:30.434Z,9.85
2022-10-04T00:28:27.798Z,9.76
2022-10-04T00:35:20.369Z,9.65
2022-10-04T02:18:44.427Z,9.55
2022-10-04T02:47:12.062Z,9.56
2022-10-04T02:53:59.718Z,9.54
2022-10-04T05:41:55.952Z,7.91
2022-10-04T05:47:26.893Z,8.10
2022-10-04T05:52:52.607Z,8.28
2022-10-04T05:59:09.000Z,8.44
2022-10-04T06:05:12.644Z,8.61
2022-10-04T06:11:06.591Z,8.82
2022-10-04T06:16:57.943Z,8.93
2022-10-04T06:22:26.984Z,9.04
2022-10-04T06:27:58.162Z,9.20
2022-10-04T06:33:50.221Z,9.25
2022-10-04T06:39:33.501Z,9.33
2022-10-04T06:45:10.698Z,9.46
2022-10-04T06:51:03.367Z,9.59
2022-10-04T06:56:41.848Z,9.73
2022-10-04T07:02:29.334Z,9.82
2022-10-04T07:08:06.880Z,9.85
2022-10-04T07:13:29.149Z,9.89
2022-10-04T07:19:14.300Z,9.97
2022-10-04T07:25:19.476Z,10.04
2022-10-04T07:30:52.623Z,10.03
2022-10-04T07:36:26.954Z,9.99
2022-10-04T07:42:19.375Z,9.93
2022-10-04T07:47:41.877Z,9.89
2022-10-04T07:53:14.055Z,9.92
2022-10-04T07:59:00.555Z,10.06
2022-10-04T08:04:53.140Z,10.24
2022-10-04T08:17:45.069Z,10.76
2022-10-04T08:24:31.698Z,10.85
2022-10-04T08:31:21.076Z,11.04
2022-10-04T08:38:16.617Z,11.10
2022-10-04T08:44:57.725Z,10.97
2022-10-04T08:51:47.740Z,11.20
2022-10-04T08:58:13.479Z,11.30
2022-10-04T09:04:01.703Z,11.44
2022-10-04T09:10:38.018Z,11.29
2022-10-04T09:16:43.073Z,11.12
2022-10-04T09:23:04.090Z,11.14
2022-10-04T09:29:16.692Z,11.14
2022-10-04T09:35:03.636Z,11.64
2022-10-04T09:40:53.660Z,12.08
2022-10-04T09:52:53.690Z,12.39
2022-10-04T09:58:50.657Z,12.32
2022-10-04T10:11:40.318Z,11.99
2022-10-04T10:18:23.455Z,12.38
2022-10-04T10:25:20.367Z,12.47
2022-10-04T10:32:03.009Z,12.46
2022-10-04T12:08:55.889Z,13.73
2022-10-04T12:29:19.361Z,14.63
2022-10-04T12:35:50.881Z,14.84
2022-10-04T12:48:55.873Z,14.59
2022-10-04T12:54:59.447Z,14.16
2022-10-04T13:00:28.115Z,13.72
2022-10-04T13:06:56.592Z,13.60
2022-10-04T13:19:57.190Z,13.29
2022-10-04T13:26:45.027Z,13.78
2022-10-04T13:32:27.822Z,14.30
2022-10-04T13:38:17.684Z,14.85
2022-10-04T13:50:31.949Z,15.96
2022-10-04T13:56:38.450Z,16.41
2022-10-04T14:02:30.121Z,16.82
2022-10-04T14:08:16.207Z,17.13
2022-10-04T14:14:15.699Z,17.39
2022-10-04T14:19:52.001Z,17.32
2022-10-04T14:25:51.462Z,16.89
2022-10-04T14:31:43.336Z,16.61
2022-10-04T14:37:35.121Z,16.63
2022-10-04T14:43:19.106Z,16.62
2022-10-04T14:48:47.300Z,16.52
2022-10-04T14:54:43.517Z,16.45
2022-10-04T15:00:24.121Z,16.67
2022-10-04T15:06:32.072Z,16.56
2022-10-04T15:12:32.456Z,16.31
2022-10-04T15:18:55.531Z,16.28
2022-10-04T15:25:44.107Z,15.97
2022-10-04T15:32:47.092Z,15.44
2022-10-04T15:39:32.416Z,14.96
2022-10-04T15:46:17.721Z,14.82
2022-10-04T15:53:07.335Z,14.65
2022-10-04T16:04:44.616Z,14.39
2022-10-04T16:10:16.845Z,14.10
2022-10-04T16:15:41.607Z,13.80
2022-10-04T16:21:51.746Z,13.55
2022-10-04T16:28:08.415Z,13.32
2022-10-04T16:33:43.317Z,13.11
2022-10-04T16:39:25.517Z,12.97
2022-10-04T16:45:30.964Z,12.86
2022-10-04T16:51:18.375Z,12.77
2022-10-04T17:09:03.475Z,12.43
2022-10-04T17:15:05.426Z,12.31
2022-10-04T17:20:54.940Z,12.26
2022-10-04T17:27:00.807Z,12.21
2022-10-04T17:32:41.842Z,12.13
2022-10-04T17:38:12.164Z,12.01
2022-10-04T17:43:52.681Z,11.87
2022-10-04T17:49:47.061Z,11.80
2022-10-04T17:55:29.061Z,11.71
2022-10-04T18:01:02.605Z,11.59
2022-10-04T18:06:41.088Z,11.50
2022-10-04T18:12:50.279Z,11.44
2022-10-04T18:18:25.800Z,11.38
2022-10-04T18:24:20.759Z,11.31
2022-10-04T18:29:47.226Z,11.21
2022-10-04T18:35:31.383Z,11.17
2022-10-04T18:40:58.827Z,11.14
2022-10-04T18:46:24.171Z,11.05
2022-10-04T18:52:17.671Z,10.88
2022-10-04T18:58:04.561Z,10.72
2022-10-04T19:03:47.622Z,10.64
2022-10-04T19:10:00.580Z,10.55
2022-10-04T19:15:37.151Z,10.47
2022-10-04T19:21:48.864Z,10.46
2022-10-04T19:27:24.703Z,10.42
2022-10-04T19:33:23.840Z,10.32
2022-10-04T19:39:15.577Z,10.17
2022-10-04T19:45:22.116Z,10.13
2022-10-04T19:50:49.101Z,10.04
2022-10-04T19:56:26.010Z,9.91
2022-10-04T20:01:53.219Z,9.81
2022-10-04T20:07:26.763Z,9.67
2022-10-04T20:13:13.520Z,9.52
2022-10-04T20:18:59.801Z,9.45
2022-10-04T20:24:50.458Z,9.40
2022-10-04T20:30:15.444Z,9.32
2022-10-04T20:36:27.003Z,9.29
2022-10-04T20:42:22.736Z,9.20
2022-10-04T20:47:52.762Z,9.07
2022-10-04T20:53:20.322Z,8.99
2022-10-04T20:58:44.340Z,8.95
2022-10-04T21:04:34.756Z,8.91
2022-10-04T21:10:17.217Z,8.94
2022-10-04T21:16:40.018Z,8.91
2022-10-04T21:23:27.517Z,8.77
2022-10-04T21:30:10.450Z,8.69
2022-10-04T21:36:53.310Z,8.53
2022-10-04T21:43:36.891Z,8.38
2022-10-04T21:50:19.373Z,8.33
2022-10-04T21:57:02.274Z,8.36
2022-10-04T22:03:48.055Z,8.34
2022-10-04T22:10:30.943Z,8.36
2022-10-04T22:17:13.750Z,8.32
2022-10-04T22:23:46.458Z,8.21
2022-10-04T22:30:29.263Z,8.07
2022-10-04T22:37:18.113Z,7.92
2022-10-04T22:44:01.178Z,7.84
2022-10-04T22:50:44.292Z,7.85
2022-10-04T22:57:27.661Z,7.85
2022-10-04T23:04:13.613Z,7.80
2022-10-04T23:10:57.115Z,7.79
2022-10-04T23:17:39.664Z,7.73
2022-10-04T23:24:22.107Z,7.69
2022-10-04T23:31:05.181Z,7.70
2022-10-04T23:37:50.893Z,7.66
2022-10-04T23:44:33.813Z,7.60
2022-10-04T23:51:26.144Z,7.53
2022-10-04T23:58:09.324Z,7.39
